createdAt,value
2022-07-30T00:01:22.497Z,13.20
2022-07-30T00:03:48.962Z,8.65
2022-07-30T00:06:17.823Z,6.85
2022-07-30T00:08:44.122Z,7.20
2022-07-30T00:11:11.913Z,6.93
2022-07-30T00:16:04.427Z,5.10
2022-07-30T00:18:30.724Z,7.13
2022-07-30T00:20:57.007Z,7.03
2022-07-30T00:23:23.314Z,5.15
2022-07-30T00:25:49.618Z,5.40
2022-07-30T00:28:15.931Z,7.47
2022-07-30T00:30:42.246Z,6.40
2022-07-30T00:33:08.619Z,7.35
2022-07-30T00:35:34.931Z,4.90
2022-07-30T00:38:01.229Z,5.75
2022-07-30T00:40:27.540Z,6.10
2022-07-30T00:42:53.833Z,5.47
2022-07-30T00:45:20.119Z,5.57
2022-07-30T00:47:46.447Z,5.15
2022-07-30T00:50:12.728Z,6.63
2022-07-30T00:52:39.014Z,5.95
2022-07-30T00:55:05.308Z,8.57
2022-07-30T00:57:31.603Z,5.05
2022-07-30T00:59:58.147Z,8.63
2022-07-30T01:02:24.465Z,7.70
2022-07-30T01:04:50.808Z,5.10
2022-07-30T01:07:19.068Z,9.05
2022-07-30T01:09:48.015Z,6.75
2022-07-30T01:12:14.864Z,5.57
2022-07-30T01:14:41.169Z,6.63
2022-07-30T01:17:07.450Z,9.40
2022-07-30T01:19:48.937Z,8.77
2022-07-30T01:22:15.250Z,6.00
2022-07-30T01:24:41.552Z,7.97
2022-07-30T01:27:07.853Z,9.65
2022-07-30T01:29:34.150Z,5.90
2022-07-30T01:32:00.557Z,8.57
2022-07-30T01:34:26.919Z,5.10
2022-07-30T01:36:53.212Z,5.53
2022-07-30T01:39:19.604Z,10.20
2022-07-30T01:41:45.911Z,6.72
2022-07-30T01:44:12.206Z,6.50
2022-07-30T01:46:38.506Z,7.07
2022-07-30T01:49:04.891Z,8.73
2022-07-30T01:51:37.145Z,8.07
2022-07-30T01:54:04.044Z,5.88
2022-07-30T01:56:30.334Z,6.10
2022-07-30T01:59:01.126Z,10.85
2022-07-30T02:01:27.515Z,8.23
2022-07-30T02:03:53.933Z,6.68
2022-07-30T02:06:21.143Z,9.25
2022-07-30T02:08:47.437Z,8.02
2022-07-30T02:11:13.715Z,5.88
2022-07-30T02:13:40.028Z,8.10
2022-07-30T02:16:06.350Z,7.78
2022-07-30T02:18:32.695Z,6.38
2022-07-30T02:20:58.987Z,9.00
2022-07-30T02:23:25.344Z,6.45
2022-07-30T02:25:51.646Z,8.52
2022-07-30T02:28:17.946Z,9.55
2022-07-30T02:30:44.243Z,8.05
2022-07-30T02:33:12.622Z,8.93
2022-07-30T02:35:38.926Z,6.88
2022-07-30T02:38:05.530Z,7.60
2022-07-30T02:40:31.831Z,6.68
2022-07-30T02:42:58.139Z,7.53
2022-07-30T02:45:24.715Z,7.68
2022-07-30T02:47:51.026Z,6.20
2022-07-30T02:50:17.356Z,6.25
2022-07-30T02:52:43.646Z,8.82
2022-07-30T02:55:09.941Z,7.13
2022-07-30T02:57:36.263Z,8.35
2022-07-30T03:00:09.561Z,6.30
2022-07-30T03:02:36.135Z,8.43
2022-07-30T03:05:04.262Z,7.40
2022-07-30T03:07:30.560Z,8.02
2022-07-30T03:09:57.063Z,6.55
2022-07-30T03:12:23.364Z,7.70
2022-07-30T03:14:49.661Z,6.13
2022-07-30T03:17:15.974Z,5.32
2022-07-30T03:19:42.277Z,7.22
2022-07-30T03:22:08.606Z,9.10
2022-07-30T03:24:35.163Z,8.82
2022-07-30T03:27:03.824Z,9.57
2022-07-30T03:29:30.367Z,6.55
2022-07-30T03:31:56.716Z,8.52
2022-07-30T03:34:23.226Z,5.97
2022-07-30T03:36:50.692Z,7.95
2022-07-30T03:39:17.444Z,7.28
2022-07-30T03:41:43.735Z,5.50
2022-07-30T03:44:10.163Z,7.93
2022-07-30T03:46:36.541Z,7.22
2022-07-30T03:49:02.945Z,6.00
2022-07-30T03:51:32.993Z,8.57
2022-07-30T03:53:59.670Z,8.20
2022-07-30T03:56:26.076Z,8.38
2022-07-30T03:58:52.386Z,7.40
2022-07-30T04:01:18.779Z,8.15
2022-07-30T04:03:45.181Z,8.20
2022-07-30T04:06:11.530Z,10.10
2022-07-30T04:08:37.834Z,7.25
2022-07-30T04:11:04.169Z,5.60
2022-07-30T04:13:30.585Z,8.40
2022-07-30T04:16:38.489Z,7.22
2022-07-30T04:18:43.176Z,6.65
2022-07-30T04:21:15.987Z,6.90
2022-07-30T04:24:04.044Z,9.68
2022-07-30T04:26:29.911Z,8.02
2022-07-30T04:28:56.791Z,7.47
2022-07-30T04:31:23.143Z,8.00
2022-07-30T04:33:49.485Z,6.88
2022-07-30T04:36:16.514Z,6.90
2022-07-30T04:38:42.884Z,10.20
2022-07-30T04:41:09.211Z,7.53
2022-07-30T04:43:35.525Z,9.73
2022-07-30T04:46:01.974Z,9.38
2022-07-30T04:48:29.052Z,7.85
2022-07-30T04:50:55.267Z,12.33
2022-07-30T04:53:21.560Z,7.80
2022-07-30T04:55:47.896Z,8.00
2022-07-30T04:58:14.222Z,13.27
2022-07-30T05:00:41.467Z,9.73
2022-07-30T05:03:08.098Z,8.38
2022-07-30T05:05:34.423Z,6.50
2022-07-30T05:08:00.718Z,7.30
2022-07-30T05:10:27.011Z,7.90
2022-07-30T05:12:53.322Z,9.65
2022-07-30T05:15:19.924Z,8.02
2022-07-30T05:17:46.210Z,9.88
2022-07-30T05:20:12.502Z,7.32
2022-07-30T05:22:38.801Z,10.70
2022-07-30T05:25:16.005Z,9.02
2022-07-30T05:27:42.687Z,7.20
2022-07-30T05:30:08.983Z,7.03
2022-07-30T05:32:35.354Z,7.72
2022-07-30T05:35:02.229Z,8.00
2022-07-30T05:37:28.507Z,6.63
2022-07-30T05:39:57.611Z,6.78
2022-07-30T05:42:29.314Z,5.93
2022-07-30T05:44:55.869Z,8.60
2022-07-30T05:47:22.853Z,11.63
2022-07-30T05:49:49.100Z,6.83
2022-07-30T05:52:15.410Z,7.45
2022-07-30T05:54:41.754Z,5.97
2022-07-30T05:57:08.053Z,8.93
2022-07-30T05:59:34.372Z,8.65
2022-07-30T06:02:01.832Z,6.35
2022-07-30T06:04:28.252Z,8.98
2022-07-30T06:06:54.634Z,8.75
2022-07-30T06:09:32.957Z,7.25
2022-07-30T06:12:03.495Z,17.38
2022-07-30T06:14:29.794Z,7.22
2022-07-30T06:16:56.079Z,9.50
2022-07-30T06:19:22.535Z,6.88
2022-07-30T06:22:05.763Z,6.47
2022-07-30T06:24:33.280Z,7.10
2022-07-30T06:26:59.873Z,8.60
2022-07-30T06:29:26.474Z,7.53
2022-07-30T06:31:52.788Z,7.55
2022-07-30T06:34:19.115Z,6.70
2022-07-30T06:36:45.455Z,10.13
2022-07-30T06:39:11.749Z,8.98
2022-07-30T06:41:38.136Z,8.23
2022-07-30T06:44:04.427Z,13.10
2022-07-30T06:46:30.785Z,7.72
2022-07-30T06:48:57.161Z,9.88
2022-07-30T06:51:23.509Z,8.07
2022-07-30T06:53:49.808Z,10.18
2022-07-30T06:56:16.104Z,7.00
2022-07-30T06:58:42.400Z,6.13
2022-07-30T07:01:11.263Z,9.70
2022-07-30T07:03:40.014Z,7.22
2022-07-30T07:06:06.679Z,7.78
2022-07-30T07:08:32.975Z,11.65
2022-07-30T07:10:59.286Z,10.90
2022-07-30T07:13:25.579Z,8.45
2022-07-30T07:15:51.871Z,6.32
2022-07-30T07:18:18.176Z,10.20
2022-07-30T07:20:46.548Z,5.88
2022-07-30T07:23:12.865Z,11.73
2022-07-30T07:25:40.180Z,7.63
2022-07-30T07:28:11.637Z,9.60
2022-07-30T07:30:39.685Z,8.80
2022-07-30T07:33:06.071Z,6.38
2022-07-30T07:35:32.384Z,9.40
2022-07-30T07:38:14.700Z,6.32
2022-07-30T07:40:40.986Z,9.05
2022-07-30T07:43:07.313Z,8.05
2022-07-30T07:45:34.222Z,14.18
2022-07-30T07:48:00.579Z,11.55
2022-07-30T07:50:26.887Z,13.15
2022-07-30T07:52:53.241Z,11.57
2022-07-30T07:55:22.980Z,11.55
2022-07-30T07:57:50.400Z,9.68
2022-07-30T08:00:17.743Z,8.88
2022-07-30T08:02:44.357Z,6.80
2022-07-30T08:05:12.476Z,12.32
2022-07-30T08:07:38.912Z,8.88
2022-07-30T08:10:05.230Z,8.88
2022-07-30T08:12:31.582Z,9.27
2022-07-30T08:14:57.862Z,9.85
2022-07-30T08:17:24.509Z,9.75
2022-07-30T08:19:50.804Z,11.40
2022-07-30T08:22:17.114Z,9.82
2022-07-30T08:24:43.406Z,11.30
2022-07-30T08:27:09.690Z,9.60
2022-07-30T08:29:35.985Z,10.15
2022-07-30T08:32:02.632Z,10.07
2022-07-30T08:34:29.417Z,12.10
2022-07-30T08:36:55.779Z,9.95
2022-07-30T08:39:22.101Z,9.15
2022-07-30T08:41:48.396Z,8.75
2022-07-30T08:44:14.692Z,15.68
2022-07-30T08:46:41.344Z,10.38
2022-07-30T08:49:14.223Z,9.30
2022-07-30T08:51:40.518Z,10.20
2022-07-30T08:54:06.845Z,10.27
2022-07-30T08:56:33.167Z,11.77
2022-07-30T08:58:59.467Z,8.00
2022-07-30T09:01:25.768Z,9.95
2022-07-30T09:03:52.107Z,12.00
2022-07-30T09:06:18.449Z,10.98
2022-07-30T09:08:44.754Z,7.60
2022-07-30T09:11:11.083Z,8.00
2022-07-30T09:13:41.700Z,7.80
2022-07-30T09:16:08.076Z,11.77
2022-07-30T09:18:34.409Z,8.85
2022-07-30T09:21:00.750Z,7.20
2022-07-30T09:23:27.106Z,9.05
2022-07-30T09:25:54.424Z,8.90
2022-07-30T09:28:20.850Z,10.55
2022-07-30T09:30:47.130Z,6.70
2022-07-30T09:33:13.437Z,7.85
2022-07-30T09:35:39.726Z,13.27
2022-07-30T09:38:06.765Z,11.25
2022-07-30T09:40:33.622Z,7.80
2022-07-30T09:42:59.920Z,7.75
2022-07-30T09:45:26.210Z,10.05
2022-07-30T09:48:01.416Z,9.57
2022-07-30T09:50:30.046Z,10.05
2022-07-30T09:52:57.072Z,12.35
2022-07-30T09:55:23.552Z,8.25
2022-07-30T09:57:51.484Z,8.07
2022-07-30T10:00:23.714Z,9.02
2022-07-30T10:02:51.598Z,11.60
2022-07-30T10:05:19.300Z,8.40
2022-07-30T10:07:46.778Z,9.10
2022-07-30T10:12:43.447Z,10.18
2022-07-30T10:15:13.495Z,13.32
2022-07-30T10:17:40.039Z,9.43
2022-07-30T10:20:08.906Z,10.02
2022-07-30T10:22:35.736Z,7.03
2022-07-30T10:25:02.527Z,10.10
2022-07-30T10:27:32.117Z,9.50
2022-07-30T10:29:58.558Z,8.30
2022-07-30T10:32:31.020Z,7.03
2022-07-30T10:37:24.312Z,12.83
2022-07-30T10:39:52.415Z,9.45
2022-07-30T10:42:19.723Z,9.05
2022-07-30T10:44:46.048Z,10.38
2022-07-30T10:47:13.941Z,8.30
2022-07-30T10:52:08.032Z,7.43
2022-07-30T10:54:39.339Z,8.25
2022-07-30T10:57:06.390Z,10.00
2022-07-30T10:59:32.689Z,11.73
2022-07-30T11:02:03.363Z,9.07
2022-07-30T11:04:29.905Z,6.85
2022-07-30T11:06:56.208Z,12.25
2022-07-30T11:09:22.989Z,8.35
2022-07-30T11:12:01.215Z,9.25
2022-07-30T11:14:32.714Z,7.90
2022-07-30T11:16:59.096Z,9.68
2022-07-30T11:19:56.203Z,8.37
2022-07-30T11:22:12.883Z,8.82
2022-07-30T11:24:39.218Z,8.27
2022-07-30T11:27:05.517Z,8.05
2022-07-30T11:29:35.227Z,12.85
2022-07-30T11:32:17.360Z,8.52
2022-07-30T11:34:43.742Z,7.95
2022-07-30T11:37:18.096Z,7.50
2022-07-30T11:39:48.358Z,9.60
2022-07-30T11:42:15.702Z,8.90
2022-07-30T11:44:42.471Z,9.57
2022-07-30T11:47:08.802Z,9.00
2022-07-30T11:49:35.123Z,7.13
2022-07-30T11:52:01.632Z,6.60
2022-07-30T11:54:28.085Z,6.70
2022-07-30T11:56:54.374Z,9.93
2022-07-30T11:59:20.677Z,7.28
2022-07-30T12:01:46.984Z,11.88
2022-07-30T12:04:13.276Z,6.40
2022-07-30T12:06:39.723Z,7.90
2022-07-30T12:09:06.037Z,10.35
2022-07-30T12:11:32.407Z,9.15
2022-07-30T12:13:59.610Z,9.15
2022-07-30T12:16:25.923Z,11.23
2022-07-30T12:18:52.234Z,7.20
2022-07-30T12:21:18.837Z,6.80
2022-07-30T12:23:45.111Z,8.65
2022-07-30T12:26:11.403Z,8.18
2022-07-30T12:28:37.733Z,7.95
2022-07-30T12:31:04.373Z,9.15
2022-07-30T12:33:30.731Z,8.05
2022-07-30T12:35:57.031Z,6.13
2022-07-30T12:38:23.342Z,7.40
2022-07-30T12:40:49.659Z,7.50
2022-07-30T12:43:16.188Z,9.98
2022-07-30T12:45:52.201Z,6.07
2022-07-30T12:48:20.747Z,7.47
2022-07-30T12:50:48.482Z,8.15
2022-07-30T12:53:14.770Z,8.02
2022-07-30T12:55:41.084Z,11.80
2022-07-30T12:58:08.812Z,10.70
2022-07-30T13:00:36.077Z,8.32
2022-07-30T13:03:02.318Z,8.60
2022-07-30T13:05:28.608Z,7.40
2022-07-30T13:07:54.897Z,9.70
2022-07-30T13:10:21.402Z,8.98
2022-07-30T13:12:47.692Z,5.95
2022-07-30T13:15:14.018Z,7.55
2022-07-30T13:17:40.310Z,7.30
2022-07-30T13:20:06.618Z,11.43
2022-07-30T13:22:32.919Z,9.90
2022-07-30T13:25:00.374Z,8.40
2022-07-30T13:27:26.675Z,8.15
2022-07-30T13:29:52.995Z,11.77
2022-07-30T13:32:19.293Z,11.13
2022-07-30T13:34:49.048Z,8.20
2022-07-30T13:37:15.346Z,6.10
2022-07-30T13:39:41.662Z,6.82
2022-07-30T13:42:07.971Z,7.78
2022-07-30T13:44:34.259Z,10.32
2022-07-30T13:47:02.079Z,9.80
2022-07-30T13:49:28.707Z,11.48
2022-07-30T13:51:56.564Z,7.40
2022-07-30T13:54:22.886Z,5.22
2022-07-30T13:56:49.179Z,5.78
2022-07-30T13:59:16.035Z,5.22
2022-07-30T14:01:42.723Z,4.57
2022-07-30T14:04:09.396Z,9.82
2022-07-30T14:06:35.724Z,9.05
2022-07-30T14:09:02.050Z,8.50
2022-07-30T14:11:28.354Z,7.97
2022-07-30T14:13:54.899Z,6.90
2022-07-30T14:16:43.511Z,10.20
2022-07-30T14:19:07.523Z,10.75
2022-07-30T14:21:34.481Z,9.32
2022-07-30T14:24:00.942Z,9.67
2022-07-30T14:26:30.039Z,12.20
2022-07-30T14:29:02.727Z,11.90
2022-07-30T14:31:29.046Z,5.95
2022-07-30T14:33:55.552Z,7.97
2022-07-30T14:36:22.392Z,6.57
2022-07-30T14:38:48.926Z,8.23
2022-07-30T14:41:15.215Z,7.50
2022-07-30T14:43:41.524Z,5.38
2022-07-30T14:46:07.802Z,2.95
2022-07-30T14:48:34.104Z,5.00
2022-07-30T14:51:16.024Z,3.28
2022-07-30T14:53:47.075Z,4.72
2022-07-30T14:58:40.153Z,6.00
2022-07-30T15:01:15.639Z,3.28
2022-07-30T15:03:42.566Z,4.63
2022-07-30T15:06:09.630Z,3.97
2022-07-30T15:08:36.119Z,2.67
2022-07-30T15:11:04.083Z,2.30
2022-07-30T15:13:32.492Z,3.70
2022-07-30T15:15:58.834Z,3.45
2022-07-30T15:18:25.131Z,2.60
2022-07-30T15:20:51.421Z,3.60
2022-07-30T15:23:17.703Z,2.47
2022-07-30T15:25:43.997Z,2.00
2022-07-30T15:28:10.291Z,3.22
2022-07-30T15:30:36.764Z,3.90
2022-07-30T15:33:03.097Z,2.40
2022-07-30T15:35:29.397Z,1.95
2022-07-30T15:37:55.881Z,2.00
2022-07-30T15:40:22.188Z,2.95
2022-07-30T15:42:48.514Z,3.33
2022-07-30T15:45:17.555Z,4.95
2022-07-30T15:47:44.816Z,1.92
2022-07-30T15:50:11.133Z,2.08
2022-07-30T15:52:37.490Z,2.38
2022-07-30T15:55:04.205Z,2.47
2022-07-30T15:57:30.514Z,3.13
2022-07-30T15:59:56.989Z,2.83
2022-07-30T16:02:23.298Z,2.42
2022-07-30T16:04:49.596Z,6.32
2022-07-30T16:07:19.049Z,7.13
2022-07-30T16:09:45.370Z,5.50
2022-07-30T16:12:11.703Z,3.90
2022-07-30T16:14:37.999Z,4.65
2022-07-30T16:17:04.896Z,2.88
2022-07-30T16:19:31.139Z,1.87
2022-07-30T16:21:57.604Z,4.50
2022-07-30T16:24:23.903Z,3.45
2022-07-30T16:26:50.591Z,2.00
2022-07-30T16:29:17.822Z,1.85
2022-07-30T16:31:44.137Z,2.45
2022-07-30T16:34:10.435Z,1.75
2022-07-30T16:36:36.722Z,2.20
2022-07-30T16:39:03.024Z,1.73
2022-07-30T16:41:29.331Z,4.90
2022-07-30T16:43:55.631Z,2.13
2022-07-30T16:46:21.973Z,2.97
2022-07-30T16:48:50.598Z,2.08
2022-07-30T16:51:17.047Z,5.47
2022-07-30T16:53:43.359Z,2.70
2022-07-30T16:56:09.665Z,3.53
2022-07-30T16:58:35.950Z,3.10
2022-07-30T17:01:02.270Z,2.90
2022-07-30T17:03:28.614Z,1.50
2022-07-30T17:05:54.913Z,2.10
2022-07-30T17:08:24.581Z,3.33
2022-07-30T17:10:51.525Z,2.15
2022-07-30T17:13:17.844Z,3.53
2022-07-30T17:15:44.201Z,3.15
2022-07-30T17:18:13.150Z,8.05
2022-07-30T17:20:39.437Z,3.28
2022-07-30T17:23:05.788Z,3.60
2022-07-30T17:25:32.092Z,3.38
2022-07-30T17:27:58.396Z,3.13
2022-07-30T17:30:24.700Z,3.60
2022-07-30T17:32:50.998Z,5.82
2022-07-30T17:35:17.327Z,3.33
2022-07-30T17:37:43.614Z,2.90
2022-07-30T17:40:29.867Z,2.60
2022-07-30T17:43:02.936Z,3.35
2022-07-30T17:45:29.282Z,1.88
2022-07-30T17:47:55.587Z,2.10
2022-07-30T17:50:21.914Z,2.30
2022-07-30T17:52:48.193Z,5.40
2022-07-30T17:55:14.526Z,3.10
2022-07-30T17:57:40.858Z,5.40
2022-07-30T18:00:07.222Z,3.20
2022-07-30T18:02:33.543Z,2.35
2022-07-30T18:04:59.847Z,4.13
2022-07-30T18:07:26.160Z,5.53
2022-07-30T18:09:52.435Z,7.60
2022-07-30T18:12:18.748Z,6.55
2022-07-30T18:14:45.058Z,6.15
2022-07-30T18:17:14.392Z,10.98
2022-07-30T18:19:41.026Z,8.25
2022-07-30T18:22:07.433Z,9.45
2022-07-30T18:24:33.757Z,7.30
2022-07-30T18:27:06.489Z,7.75
2022-07-30T18:29:32.804Z,11.23
2022-07-30T18:31:59.150Z,12.23
2022-07-30T18:34:25.482Z,8.77
2022-07-30T18:36:53.047Z,12.07
2022-07-30T18:39:19.358Z,9.13
2022-07-30T18:41:45.654Z,8.68
2022-07-30T18:44:11.945Z,6.43
2022-07-30T18:46:38.342Z,8.75
2022-07-30T18:49:26.611Z,8.77
2022-07-30T18:51:50.944Z,7.03
2022-07-30T18:54:18.025Z,7.90
2022-07-30T18:56:44.347Z,8.63
2022-07-30T18:59:10.662Z,9.27
2022-07-30T19:01:39.065Z,9.57
2022-07-30T19:04:05.568Z,11.43
2022-07-30T19:06:31.850Z,12.80
2022-07-30T19:09:00.013Z,8.70
2022-07-30T19:11:26.318Z,8.98
2022-07-30T19:13:52.610Z,6.40
2022-07-30T19:16:20.561Z,8.13
2022-07-30T19:18:46.861Z,9.07
2022-07-30T19:21:14.244Z,9.85
2022-07-30T19:23:40.632Z,8.70
2022-07-30T19:26:06.942Z,11.55
2022-07-30T19:28:34.616Z,8.93
2022-07-30T19:31:00.914Z,7.78
2022-07-30T19:33:27.241Z,10.57
2022-07-30T19:35:53.574Z,9.40
2022-07-30T19:38:22.213Z,7.32
2022-07-30T19:40:50.419Z,10.38
2022-07-30T19:43:16.709Z,11.20
2022-07-30T19:45:47.780Z,7.07
2022-07-30T19:48:14.657Z,9.20
2022-07-30T19:50:41.626Z,7.97
2022-07-30T19:55:37.199Z,14.70
2022-07-30T19:58:03.843Z,7.80
2022-07-30T20:00:30.706Z,9.17
2022-07-30T20:02:57.016Z,7.75
2022-07-30T20:05:24.812Z,8.70
2022-07-30T20:07:51.380Z,10.40
2022-07-30T20:10:19.322Z,8.33
2022-07-30T20:12:49.088Z,10.02
2022-07-30T20:15:16.018Z,8.07
2022-07-30T20:17:42.358Z,9.82
2022-07-30T20:20:09.189Z,13.47
2022-07-30T20:22:35.487Z,9.50
2022-07-30T20:25:02.493Z,12.35
2022-07-30T20:27:35.786Z,14.07
2022-07-30T20:30:03.159Z,10.48
2022-07-30T20:32:29.452Z,9.40
2022-07-30T20:34:56.482Z,11.57
2022-07-30T20:37:23.237Z,9.50
2022-07-30T20:39:49.538Z,10.27
2022-07-30T20:42:16.223Z,8.27
2022-07-30T20:44:43.071Z,11.73
2022-07-30T20:47:09.705Z,8.90
2022-07-30T20:49:36.023Z,9.85
2022-07-30T20:52:02.550Z,9.27
2022-07-30T20:54:29.246Z,8.77
2022-07-30T20:56:56.036Z,9.65
2022-07-30T21:02:08.736Z,12.30
2022-07-30T21:04:41.351Z,10.93
2022-07-30T21:07:12.660Z,8.70
2022-07-30T21:09:49.980Z,10.25
2022-07-30T21:12:19.815Z,10.73
2022-07-30T21:14:59.580Z,9.52
2022-07-30T21:17:26.176Z,9.45
2022-07-30T21:19:54.554Z,9.23
2022-07-30T21:22:21.703Z,9.18
2022-07-30T21:24:48.065Z,9.35
2022-07-30T21:27:14.376Z,13.55
2022-07-30T21:29:41.330Z,9.75
2022-07-30T21:32:07.650Z,9.82
2022-07-30T21:34:40.230Z,11.48
2022-07-30T21:37:08.514Z,14.55
2022-07-30T21:39:40.186Z,9.18
2022-07-30T21:42:06.682Z,9.10
2022-07-30T21:44:32.993Z,9.60
2022-07-30T21:46:59.920Z,11.80
2022-07-30T21:49:27.579Z,10.57
2022-07-30T21:51:57.942Z,11.75
2022-07-30T21:54:28.979Z,8.93
2022-07-30T21:56:56.360Z,13.13
2022-07-30T21:59:24.513Z,10.90
2022-07-30T22:01:55.172Z,12.80
2022-07-30T22:04:21.586Z,11.38
2022-07-30T22:06:47.867Z,12.07
2022-07-30T22:09:19.108Z,9.27
2022-07-30T22:12:00.812Z,10.52
2022-07-30T22:14:27.830Z,13.13
2022-07-30T22:16:55.359Z,9.55
2022-07-30T22:19:21.862Z,10.18
2022-07-30T22:21:48.976Z,11.52
2022-07-30T22:24:29.329Z,11.48
2022-07-30T22:26:57.299Z,11.77
2022-07-30T22:29:27.378Z,12.77
2022-07-30T22:32:01.288Z,12.02
2022-07-30T22:34:27.886Z,9.80
2022-07-30T22:36:54.195Z,12.68
2022-07-30T22:39:23.912Z,10.65
2022-07-30T22:41:58.646Z,13.85
2022-07-30T22:44:27.288Z,10.30
2022-07-30T22:46:56.509Z,9.15
2022-07-30T22:49:23.896Z,13.60
2022-07-30T22:52:10.022Z,12.27
2022-07-30T22:54:51.646Z,13.52
2022-07-30T22:57:23.057Z,11.82
2022-07-30T22:59:57.976Z,8.75
2022-07-30T23:02:27.713Z,11.23
2022-07-30T23:04:56.423Z,12.10
2022-07-30T23:07:22.795Z,12.05
2022-07-30T23:09:52.004Z,14.63
2022-07-30T23:12:20.107Z,10.70
2022-07-30T23:12:33.009Z,10.05
2022-07-30T23:14:46.754Z,9.60
2022-07-30T23:17:13.062Z,10.93
2022-07-30T23:19:39.372Z,16.23
2022-07-30T23:22:06.995Z,9.93
2022-07-30T23:24:33.296Z,10.70
2022-07-30T23:26:59.811Z,13.05
2022-07-30T23:29:26.313Z,8.57
2022-07-30T23:31:52.604Z,9.73
2022-07-30T23:34:18.986Z,8.60
2022-07-30T23:36:45.275Z,10.30
2022-07-30T23:39:11.580Z,9.73
2022-07-30T23:41:38.276Z,12.73
2022-07-30T23:44:04.558Z,11.05
2022-07-30T23:46:30.836Z,9.32
2022-07-30T23:48:57.145Z,12.25
2022-07-30T23:51:23.603Z,9.15
2022-07-30T23:53:49.894Z,8.38
2022-07-30T23:58:45.841Z,9.95
